Terminal Aerodrome Forecast
Issued by NWS

Home | Current Version | Previous Version | Text Only | Print | Product List | Glossary On
Versions: 1 2 3 4 5 6 7 8 9 10 11 12 13 14 15 16
000
FTUS44 KLZK 051236 AAB
TAFHRO
TAF AMD
KHRO 051236Z 0513/0612 14003KT P6SM VCSH SCT020 BKN050 OVC100
      TEMPO 0513/0514 2SM BR BKN002
     FM051600 17007KT P6SM VCTS SCT030CB BKN050 OVC100
      TEMPO 0517/0521 VRB15G30KT 3SM TSRA SCT020 BKN040CB OVC080
     FM052100 24007KT P6SM VCTS SCT050CB BKN100 BKN250=

USA.gov is the U.S. government's official web portal to all federal, state and local government web resources and services.